createdAt,value
2022-08-16T00:02:31.828Z,20.41
2022-08-16T00:05:01.570Z,20.39
2022-08-16T00:07:31.451Z,20.34
2022-08-16T00:10:01.656Z,20.27
2022-08-16T00:12:30.789Z,20.34
2022-08-16T00:15:02.377Z,20.34
2022-08-16T00:17:56.587Z,20.34
2022-08-16T00:20:24.132Z,20.37
2022-08-16T00:22:58.186Z,20.39
2022-08-16T00:26:33.182Z,20.34
2022-08-16T00:28:20.301Z,20.26
2022-08-16T00:30:50.248Z,20.24
2022-08-16T00:33:18.774Z,20.29
2022-08-16T00:35:48.624Z,20.29
2022-08-16T00:38:41.459Z,20.29
2022-08-16T00:41:11.237Z,20.16
2022-08-16T00:43:42.785Z,20.16
2022-08-16T00:46:33.031Z,20.27
2022-08-16T00:49:18.710Z,20.29
2022-08-16T00:51:54.817Z,20.18
2022-08-16T00:54:29.103Z,20.04
2022-08-16T00:57:00.129Z,20.01
2022-08-16T00:59:34.386Z,19.98
2022-08-16T01:02:30.829Z,20.03
2022-08-16T01:05:09.334Z,20.02
2022-08-16T01:07:50.760Z,20.12
2022-08-16T01:10:32.248Z,20.19
2022-08-16T01:13:05.775Z,20.21
2022-08-16T01:15:43.378Z,20.14
2022-08-16T01:18:39.169Z,20.09
2022-08-16T01:21:33.598Z,20.12
2022-08-16T01:24:52.573Z,20.24
2022-08-16T01:27:15.004Z,20.15
2022-08-16T01:29:58.227Z,20.21
2022-08-16T01:32:33.526Z,20.26
2022-08-16T01:35:03.806Z,20.32
2022-08-16T01:37:42.434Z,20.25
2022-08-16T01:40:15.648Z,20.29
2022-08-16T01:42:49.667Z,20.37
2022-08-16T01:45:22.198Z,20.36
2022-08-16T01:47:53.179Z,20.32
2022-08-16T01:50:42.305Z,20.31
2022-08-16T01:53:13.883Z,20.32
2022-08-16T01:55:53.805Z,20.28
2022-08-16T01:58:27.155Z,20.24
2022-08-16T02:00:55.085Z,20.25
2022-08-16T02:03:24.405Z,20.27
2022-08-16T02:05:58.538Z,20.31
2022-08-16T02:08:33.344Z,20.24
2022-08-16T02:11:10.493Z,20.31
2022-08-16T02:13:41.647Z,20.23
2022-08-16T02:16:18.175Z,20.19
2022-08-16T02:18:47.604Z,20.23
2022-08-16T02:21:31.299Z,20.24
2022-08-16T02:23:59.655Z,20.26
2022-08-16T02:26:34.446Z,20.21
2022-08-16T02:29:02.797Z,20.19
2022-08-16T02:31:32.794Z,20.19
2022-08-16T02:34:33.059Z,20.30
2022-08-16T02:37:05.070Z,20.37
2022-08-16T02:39:36.356Z,20.35
2022-08-16T02:42:06.285Z,20.35
2022-08-16T02:44:34.137Z,20.28
2022-08-16T02:47:05.704Z,20.34
2022-08-16T02:49:58.888Z,20.25
2022-08-16T02:52:24.809Z,20.22
2022-08-16T02:54:57.558Z,20.19
2022-08-16T02:57:27.328Z,20.17
2022-08-16T02:59:56.249Z,20.25
2022-08-16T03:02:32.163Z,20.24
2022-08-16T03:05:00.597Z,20.13
2022-08-16T03:07:37.238Z,20.11
2022-08-16T03:10:09.050Z,20.11
2022-08-16T03:12:55.409Z,20.15
2022-08-16T03:15:27.632Z,20.26
2022-08-16T03:17:55.689Z,20.28
2022-08-16T03:20:31.963Z,20.29
2022-08-16T03:23:02.680Z,20.23
2022-08-16T03:25:41.094Z,20.25
2022-08-16T03:28:17.861Z,20.25
2022-08-16T03:30:46.047Z,20.30
2022-08-16T03:33:15.838Z,20.26
2022-08-16T03:35:47.854Z,20.22
2022-08-16T03:38:33.948Z,20.22
2022-08-16T03:41:14.462Z,20.29
2022-08-16T03:43:57.115Z,20.34
2022-08-16T03:46:48.192Z,20.36
2022-08-16T03:49:18.035Z,20.36
2022-08-16T03:51:47.889Z,20.43
2022-08-16T03:54:22.175Z,20.44
2022-08-16T03:56:57.053Z,20.49
2022-08-16T03:59:30.408Z,20.58
2022-08-16T04:02:01.266Z,20.60
2022-08-16T04:04:33.978Z,20.68
2022-08-16T04:07:02.774Z,20.76
2022-08-16T04:09:35.421Z,20.80
2022-08-16T04:12:11.028Z,20.80
2022-08-16T04:14:58.347Z,20.86
2022-08-16T04:17:30.285Z,20.96
2022-08-16T04:19:59.794Z,20.96
2022-08-16T04:22:28.142Z,20.99
2022-08-16T04:25:00.474Z,21.04
2022-08-16T04:27:31.715Z,21.04
2022-08-16T04:30:03.797Z,21.12
2022-08-16T04:32:31.841Z,21.06
2022-08-16T04:35:03.462Z,21.12
2022-08-16T04:37:42.410Z,21.13
2022-08-16T04:40:21.504Z,21.21
2022-08-16T04:42:50.911Z,21.19
2022-08-16T04:45:35.563Z,21.29
2022-08-16T04:48:07.488Z,21.30
2022-08-16T04:50:35.682Z,21.39
2022-08-16T04:53:04.182Z,21.50
2022-08-16T04:55:37.705Z,21.59
2022-08-16T04:58:44.825Z,21.61
2022-08-16T05:01:01.397Z,21.74
2022-08-16T05:03:32.352Z,21.77
2022-08-16T05:06:05.239Z,21.88
2022-08-16T05:08:35.340Z,21.97
2022-08-16T05:11:08.255Z,22.14
2022-08-16T05:13:42.972Z,22.63
2022-08-16T05:16:16.482Z,23.02
2022-08-16T05:18:50.315Z,23.41
2022-08-16T05:21:20.633Z,23.58
2022-08-16T05:23:51.591Z,23.55
2022-08-16T05:26:28.123Z,23.66
2022-08-16T05:28:56.885Z,23.70
2022-08-16T05:34:03.301Z,23.68
2022-08-16T05:36:34.435Z,23.46
2022-08-16T05:39:10.676Z,23.51
2022-08-16T05:41:44.994Z,23.48
2022-08-16T05:44:23.598Z,23.57
2022-08-16T05:47:00.331Z,23.67
2022-08-16T05:49:38.587Z,23.66
2022-08-16T05:52:13.611Z,23.86
2022-08-16T05:54:58.424Z,23.94
2022-08-16T05:57:34.550Z,24.05
2022-08-16T06:00:09.285Z,24.20
2022-08-16T06:02:41.712Z,24.40
2022-08-16T06:05:11.158Z,24.52
2022-08-16T06:07:44.502Z,24.71
2022-08-16T06:10:33.082Z,24.88
2022-08-16T06:13:01.362Z,25.14
2022-08-16T06:15:31.186Z,25.25
2022-08-16T06:18:00.592Z,25.37
2022-08-16T06:20:35.662Z,25.51
2022-08-16T06:23:16.734Z,25.69
2022-08-16T06:25:52.966Z,25.68
2022-08-16T06:28:35.992Z,25.63
2022-08-16T06:31:06.810Z,25.56
2022-08-16T06:33:44.756Z,25.68
2022-08-16T06:36:14.850Z,25.66
2022-08-16T06:38:56.210Z,25.64
2022-08-16T06:41:27.858Z,25.50
2022-08-16T06:43:56.502Z,25.47
2022-08-16T06:46:31.999Z,25.70
2022-08-16T06:49:05.175Z,25.77
2022-08-16T06:51:48.403Z,26.12
2022-08-16T06:54:17.466Z,26.12
2022-08-16T06:56:47.980Z,26.27
2022-08-16T06:59:25.852Z,26.28
2022-08-16T07:01:58.038Z,26.30
2022-08-16T07:04:32.339Z,26.59
2022-08-16T07:07:01.865Z,26.77
2022-08-16T07:09:33.637Z,27.03
2022-08-16T07:12:05.547Z,26.98
2022-08-16T07:14:38.019Z,27.23
2022-08-16T07:17:08.419Z,27.27
2022-08-16T07:20:02.890Z,27.48
2022-08-16T07:22:37.083Z,27.40
2022-08-16T07:25:20.130Z,27.35
2022-08-16T07:27:50.740Z,27.24
2022-08-16T07:30:39.292Z,27.32
2022-08-16T07:33:10.988Z,27.39
2022-08-16T07:35:49.417Z,27.66
2022-08-16T07:38:20.235Z,27.89
2022-08-16T07:41:10.302Z,27.87
2022-08-16T07:43:40.385Z,27.96
2022-08-16T07:46:37.862Z,28.18
2022-08-16T07:49:02.497Z,28.07
2022-08-16T07:51:35.555Z,27.71
2022-08-16T07:54:11.440Z,27.47
2022-08-16T07:56:49.030Z,27.49
2022-08-16T07:59:19.450Z,27.60
2022-08-16T08:01:47.187Z,27.66
2022-08-16T08:04:16.938Z,27.80
2022-08-16T08:06:46.594Z,28.06
2022-08-16T08:09:19.385Z,28.19
2022-08-16T08:12:00.704Z,28.54
2022-08-16T08:14:30.353Z,28.69
2022-08-16T08:17:01.628Z,28.57
2022-08-16T08:19:29.557Z,28.50
2022-08-16T08:22:05.996Z,27.95
2022-08-16T08:24:35.160Z,27.48
2022-08-16T08:27:08.456Z,27.01
2022-08-16T08:29:40.376Z,27.00
2022-08-16T08:32:49.079Z,27.37
2022-08-16T08:35:03.400Z,27.77
2022-08-16T08:37:54.354Z,28.44
2022-08-16T08:40:28.565Z,28.58
2022-08-16T08:43:00.325Z,28.13
2022-08-16T08:45:47.810Z,28.17
2022-08-16T08:48:33.089Z,28.10
2022-08-16T08:51:03.545Z,28.23
2022-08-16T08:53:38.158Z,28.13
2022-08-16T08:56:22.850Z,28.06
2022-08-16T08:58:59.085Z,27.74
2022-08-16T09:01:36.951Z,27.43
2022-08-16T09:04:14.349Z,27.35
2022-08-16T09:06:43.757Z,27.22
2022-08-16T09:09:17.012Z,27.26
2022-08-16T09:11:49.618Z,27.23
2022-08-16T09:14:25.167Z,27.26
2022-08-16T09:17:01.626Z,27.38
2022-08-16T09:19:33.815Z,27.22
2022-08-16T09:22:02.013Z,27.29
2022-08-16T09:24:51.784Z,27.55
2022-08-16T09:27:25.190Z,28.02
2022-08-16T09:29:59.856Z,28.11
2022-08-16T09:32:30.915Z,27.99
2022-08-16T09:34:59.818Z,28.28
2022-08-16T09:37:29.871Z,28.27
2022-08-16T09:40:03.850Z,28.19
2022-08-16T09:42:56.120Z,28.33
2022-08-16T09:45:32.892Z,28.26
2022-08-16T09:48:04.313Z,28.18
2022-08-16T09:50:39.709Z,27.99
2022-08-16T09:53:15.174Z,28.09
2022-08-16T09:55:50.345Z,27.92
2022-08-16T09:58:40.634Z,27.91
2022-08-16T10:01:11.941Z,27.58
2022-08-16T10:04:02.385Z,27.70
2022-08-16T10:06:33.437Z,27.64
2022-08-16T10:09:05.758Z,27.44
2022-08-16T10:12:11.522Z,26.94
2022-08-16T10:14:46.512Z,26.96
2022-08-16T10:17:19.118Z,27.09
2022-08-16T10:19:47.275Z,27.03
2022-08-16T10:22:18.547Z,27.01
2022-08-16T10:24:56.132Z,26.76
2022-08-16T10:27:46.908Z,26.95
2022-08-16T10:30:26.259Z,26.88
2022-08-16T10:32:59.872Z,27.06
2022-08-16T10:35:32.970Z,27.67
2022-08-16T10:38:01.279Z,28.12
2022-08-16T10:40:30.654Z,28.20
2022-08-16T10:43:02.947Z,28.12
2022-08-16T10:45:37.119Z,27.96
2022-08-16T10:48:27.769Z,28.13
2022-08-16T10:50:58.253Z,28.41
2022-08-16T10:53:33.182Z,28.49
2022-08-16T10:56:02.697Z,28.85
2022-08-16T10:58:34.621Z,28.98
2022-08-16T11:03:54.084Z,29.13
2022-08-16T11:06:26.742Z,29.11
2022-08-16T11:14:38.005Z,28.10
2022-08-16T11:17:10.563Z,28.10
2022-08-16T11:22:42.318Z,28.07
2022-08-16T11:28:09.228Z,28.74
2022-08-16T11:30:40.886Z,29.13
2022-08-16T11:33:11.425Z,29.56
2022-08-16T11:36:22.324Z,30.37
2022-08-16T11:38:51.974Z,30.22
2022-08-16T11:41:24.945Z,29.89
2022-08-16T11:43:54.393Z,29.81
2022-08-16T11:46:45.242Z,29.36
2022-08-16T11:49:14.397Z,29.29
2022-08-16T11:51:44.089Z,29.16
2022-08-16T11:54:20.469Z,29.10
2022-08-16T11:56:52.476Z,28.71
2022-08-16T11:59:28.481Z,28.81
2022-08-16T12:02:04.354Z,29.12
2022-08-16T12:04:52.189Z,28.76
2022-08-16T12:07:24.410Z,28.56
2022-08-16T12:09:55.463Z,28.38
2022-08-16T12:12:28.447Z,28.44
2022-08-16T12:14:59.779Z,28.15
2022-08-16T12:17:32.409Z,28.12
2022-08-16T12:20:00.869Z,28.39
2022-08-16T12:22:29.123Z,28.71
2022-08-16T12:24:58.964Z,29.06
2022-08-16T12:27:29.387Z,28.96
2022-08-16T12:29:59.207Z,29.22
2022-08-16T12:32:39.344Z,29.32
2022-08-16T12:35:18.008Z,29.25
2022-08-16T12:37:49.584Z,28.90
2022-08-16T12:40:31.869Z,28.41
2022-08-16T12:43:01.953Z,28.26
2022-08-16T12:45:35.714Z,27.82
2022-08-16T12:48:33.654Z,27.78
2022-08-16T12:51:13.671Z,27.94
2022-08-16T12:53:48.458Z,28.30
2022-08-16T12:56:20.851Z,28.39
2022-08-16T12:58:52.194Z,28.63
2022-08-16T13:01:25.610Z,28.68
2022-08-16T13:04:21.264Z,28.33
2022-08-16T13:06:50.052Z,28.13
2022-08-16T13:09:28.932Z,27.97
2022-08-16T13:12:03.639Z,28.13
2022-08-16T13:14:37.137Z,28.04
2022-08-16T13:17:07.770Z,27.90
2022-08-16T13:20:03.844Z,27.78
2022-08-16T13:22:29.612Z,28.06
2022-08-16T13:24:59.296Z,28.04
2022-08-16T13:27:59.255Z,27.79
2022-08-16T13:30:36.455Z,27.54
2022-08-16T13:33:12.292Z,27.52
2022-08-16T13:35:42.960Z,27.34
2022-08-16T13:38:24.980Z,27.12
2022-08-16T13:40:57.317Z,27.00
2022-08-16T13:43:26.391Z,26.94
2022-08-16T13:45:55.618Z,26.84
2022-08-16T13:48:26.177Z,26.71
2022-08-16T13:51:07.484Z,26.80
2022-08-16T13:53:38.728Z,26.95
2022-08-16T13:56:08.989Z,26.89
2022-08-16T13:58:54.385Z,27.11
2022-08-16T14:01:23.981Z,27.33
2022-08-16T14:03:56.913Z,27.42
2022-08-16T14:06:26.344Z,27.30
2022-08-16T14:09:06.568Z,27.44
2022-08-16T14:11:35.247Z,27.47
2022-08-16T14:14:05.932Z,27.53
2022-08-16T14:16:35.214Z,27.50
2022-08-16T14:19:03.748Z,27.32
2022-08-16T14:21:35.334Z,27.39
2022-08-16T14:24:16.715Z,27.26
2022-08-16T14:26:54.008Z,27.39
2022-08-16T14:29:24.331Z,27.25
2022-08-16T14:32:00.853Z,27.26
2022-08-16T14:34:31.718Z,27.27
2022-08-16T14:36:59.787Z,27.17
2022-08-16T14:39:33.067Z,26.92
2022-08-16T14:42:08.807Z,27.03
2022-08-16T14:44:43.098Z,26.83
2022-08-16T14:47:11.574Z,26.76
2022-08-16T14:49:40.784Z,26.50
2022-08-16T14:52:13.400Z,26.55
2022-08-16T14:54:45.635Z,26.70
2022-08-16T14:57:18.448Z,26.87
2022-08-16T14:59:46.424Z,26.92
2022-08-16T15:02:34.129Z,27.03
2022-08-16T15:05:04.402Z,27.18
2022-08-16T15:07:35.455Z,26.92
2022-08-16T15:10:06.331Z,26.82
2022-08-16T15:12:37.700Z,26.82
2022-08-16T15:15:13.076Z,26.76
2022-08-16T15:17:56.647Z,26.80
2022-08-16T15:20:29.452Z,26.75
2022-08-16T15:23:04.494Z,26.79
2022-08-16T15:25:41.344Z,26.91
2022-08-16T15:28:30.748Z,26.86
2022-08-16T15:31:03.135Z,26.81
2022-08-16T15:33:42.150Z,26.79
2022-08-16T15:36:17.455Z,26.70
2022-08-16T15:39:02.571Z,26.49
2022-08-16T15:42:03.682Z,26.69
2022-08-16T15:44:44.662Z,26.56
2022-08-16T15:47:25.779Z,26.57
2022-08-16T15:49:58.005Z,26.62
2022-08-16T15:52:30.377Z,26.64
2022-08-16T15:55:13.155Z,26.89
2022-08-16T15:57:51.560Z,27.18
2022-08-16T16:00:23.057Z,27.24
2022-08-16T16:03:01.815Z,27.26
2022-08-16T16:05:34.186Z,27.42
2022-08-16T16:08:11.660Z,27.32
2022-08-16T16:10:39.930Z,27.23
2022-08-16T16:13:09.286Z,27.33
2022-08-16T16:15:41.543Z,27.39
2022-08-16T16:18:12.082Z,27.28
2022-08-16T16:20:43.960Z,27.36
2022-08-16T16:23:17.934Z,27.25
2022-08-16T16:25:48.916Z,27.29
2022-08-16T16:29:06.496Z,27.23
2022-08-16T16:31:18.134Z,27.15
2022-08-16T16:33:52.028Z,27.17
2022-08-16T16:36:29.421Z,27.20
2022-08-16T16:39:00.734Z,27.14
2022-08-16T16:41:30.398Z,27.17
2022-08-16T16:44:03.227Z,27.19
2022-08-16T16:46:40.348Z,27.21
2022-08-16T16:49:14.559Z,27.11
2022-08-16T16:51:49.923Z,27.08
2022-08-16T16:54:28.109Z,27.00
2022-08-16T16:56:59.166Z,27.08
2022-08-16T16:59:28.211Z,26.95
2022-08-16T17:02:38.135Z,26.99
2022-08-16T17:04:45.472Z,27.04
2022-08-16T17:07:15.170Z,26.92
2022-08-16T17:09:45.675Z,26.84
2022-08-16T17:12:24.936Z,26.87
2022-08-16T17:15:07.444Z,26.83
2022-08-16T17:17:59.775Z,26.70
2022-08-16T17:20:28.648Z,26.62
2022-08-16T17:23:01.024Z,26.53
2022-08-16T17:25:36.681Z,26.39
2022-08-16T17:28:59.056Z,26.23
2022-08-16T17:30:55.472Z,26.03
2022-08-16T17:33:28.164Z,25.97
2022-08-16T17:36:05.739Z,25.81
2022-08-16T17:38:45.899Z,25.72
2022-08-16T17:41:15.415Z,25.55
2022-08-16T17:43:47.866Z,25.41
2022-08-16T17:46:50.897Z,25.27
2022-08-16T17:49:09.649Z,25.22
2022-08-16T17:51:37.448Z,25.05
2022-08-16T17:54:06.802Z,24.99
2022-08-16T17:56:38.734Z,24.87
2022-08-16T17:59:06.570Z,24.81
2022-08-16T18:01:35.792Z,24.74
2022-08-16T18:04:08.790Z,24.71
2022-08-16T18:06:37.791Z,24.58
2022-08-16T18:09:07.731Z,24.48
2022-08-16T18:11:40.729Z,24.37
2022-08-16T18:14:10.763Z,24.33
2022-08-16T18:16:41.350Z,24.21
2022-08-16T18:19:09.859Z,24.16
2022-08-16T18:21:57.668Z,24.14
2022-08-16T18:24:27.852Z,24.09
2022-08-16T18:26:55.987Z,23.99
2022-08-16T18:29:23.948Z,23.94
2022-08-16T18:31:53.330Z,23.91
2022-08-16T18:34:23.429Z,23.93
2022-08-16T18:36:53.241Z,23.75
2022-08-16T18:39:21.167Z,23.78
2022-08-16T18:41:51.283Z,23.65
2022-08-16T18:44:26.668Z,23.66
2022-08-16T18:46:57.864Z,23.48
2022-08-16T18:49:25.912Z,23.48
2022-08-16T18:51:57.766Z,23.46
2022-08-16T18:54:26.381Z,23.39
2022-08-16T18:56:56.130Z,23.29
2022-08-16T18:59:29.814Z,23.29
2022-08-16T19:02:05.119Z,23.18
2022-08-16T19:04:47.446Z,23.23
2022-08-16T19:07:29.625Z,23.10
2022-08-16T19:10:04.439Z,23.12
2022-08-16T19:12:38.679Z,23.10
2022-08-16T19:15:16.611Z,22.91
2022-08-16T19:17:47.572Z,22.92
2022-08-16T19:20:21.478Z,22.90
2022-08-16T19:23:10.648Z,22.90
2022-08-16T19:25:49.467Z,22.88
2022-08-16T19:28:57.915Z,22.86
2022-08-16T19:31:16.125Z,22.77
2022-08-16T19:33:53.836Z,22.73
2022-08-16T19:36:32.064Z,22.63
2022-08-16T19:39:05.325Z,22.62
2022-08-16T19:41:38.396Z,22.56
2022-08-16T19:44:07.595Z,22.53
2022-08-16T19:46:35.957Z,22.51
2022-08-16T19:49:10.758Z,22.52
2022-08-16T19:51:44.294Z,22.39
2022-08-16T19:54:16.870Z,22.42
2022-08-16T19:56:45.429Z,22.37
2022-08-16T19:59:19.790Z,22.32
2022-08-16T20:01:52.830Z,22.24
2022-08-16T20:04:23.823Z,22.26
2022-08-16T20:06:53.031Z,22.32
2022-08-16T20:09:23.957Z,22.21
2022-08-16T20:11:53.202Z,22.14
2022-08-16T20:14:26.003Z,22.14
2022-08-16T20:16:58.526Z,22.17
2022-08-16T20:19:29.762Z,22.18
2022-08-16T20:22:09.091Z,22.03
2022-08-16T20:24:39.239Z,22.01
2022-08-16T20:27:11.530Z,21.92
2022-08-16T20:29:42.705Z,22.01
2022-08-16T20:32:16.301Z,21.87
2022-08-16T20:34:49.070Z,21.80
2022-08-16T20:37:19.143Z,21.88
2022-08-16T20:39:48.333Z,21.92
2022-08-16T20:42:21.540Z,21.81
2022-08-16T20:44:52.043Z,21.74
2022-08-16T20:47:20.218Z,21.78
2022-08-16T20:49:50.586Z,21.72
2022-08-16T20:52:20.228Z,21.71
2022-08-16T20:54:48.588Z,21.73
2022-08-16T20:57:17.617Z,21.67
2022-08-16T20:59:50.006Z,21.67
2022-08-16T21:02:25.608Z,21.61
2022-08-16T21:04:55.037Z,21.62
2022-08-16T21:07:25.391Z,21.60
2022-08-16T21:09:53.661Z,21.62
2022-08-16T21:12:21.499Z,21.55
2022-08-16T21:14:53.732Z,21.50
2022-08-16T21:17:23.635Z,21.51
2022-08-16T21:19:51.413Z,21.50
2022-08-16T21:22:24.046Z,21.43
2022-08-16T21:24:54.117Z,21.49
2022-08-16T21:27:24.479Z,21.46
2022-08-16T21:29:56.230Z,21.43
2022-08-16T21:32:35.804Z,21.34
2022-08-16T21:35:12.633Z,21.33
2022-08-16T21:37:42.380Z,21.37
2022-08-16T21:40:35.174Z,21.32
2022-08-16T21:43:08.445Z,21.30
2022-08-16T21:45:38.389Z,21.35
2022-08-16T21:48:07.833Z,21.35
2022-08-16T21:50:37.267Z,21.35
2022-08-16T21:53:13.310Z,21.37
2022-08-16T21:55:43.839Z,21.32
2022-08-16T21:58:16.673Z,21.32
2022-08-16T22:00:46.682Z,21.23
2022-08-16T22:03:16.713Z,21.21
2022-08-16T22:06:00.104Z,21.16
2022-08-16T22:08:46.828Z,21.23
2022-08-16T22:11:19.105Z,21.20
2022-08-16T22:13:51.184Z,21.26
2022-08-16T22:16:28.802Z,21.23
2022-08-16T22:18:58.927Z,21.15
2022-08-16T22:21:26.805Z,21.18
2022-08-16T22:23:58.930Z,21.23
2022-08-16T22:26:33.442Z,21.17
2022-08-16T22:29:02.008Z,21.09
2022-08-16T22:31:32.315Z,21.14
2022-08-16T22:34:01.928Z,21.11
2022-08-16T22:36:33.174Z,20.94
2022-08-16T22:39:10.629Z,20.99
2022-08-16T22:41:41.569Z,20.99
2022-08-16T22:44:12.821Z,21.00
2022-08-16T22:46:40.772Z,21.02
2022-08-16T22:49:11.269Z,20.99
2022-08-16T22:51:41.551Z,20.94
2022-08-16T22:54:42.554Z,20.94
2022-08-16T22:57:02.846Z,20.93
2022-08-16T22:59:31.997Z,20.83
2022-08-16T23:02:00.854Z,20.81
2022-08-16T23:04:32.772Z,20.81
2022-08-16T23:07:01.020Z,20.82
2022-08-16T23:09:33.304Z,20.67
2022-08-16T23:12:06.250Z,20.68
2022-08-16T23:14:36.232Z,20.71
2022-08-16T23:17:04.615Z,20.79
2022-08-16T23:19:32.538Z,20.83
2022-08-16T23:22:02.809Z,20.79
2022-08-16T23:24:36.970Z,20.74
2022-08-16T23:27:12.946Z,20.72
2022-08-16T23:29:40.780Z,20.61
2022-08-16T23:32:12.670Z,20.69
2022-08-16T23:34:42.797Z,20.74
2022-08-16T23:37:10.612Z,20.65
2022-08-16T23:39:43.644Z,20.59
2022-08-16T23:42:15.690Z,20.55
2022-08-16T23:45:06.897Z,20.46
2022-08-16T23:47:36.681Z,20.42
2022-08-16T23:50:05.026Z,20.40
2022-08-16T23:52:53.335Z,20.38
2022-08-16T23:55:26.491Z,20.52
2022-08-16T23:57:57.302Z,20.68
